Time;durP1;ratioP1;P1;durP2;ratioP2;P2;SDS_P1;SDS_P2;PMS_P1;PMS_P2;Temp;Humidity;BMP_temperature;BMP_pressure;BME280_temperature;BME280_humidity;BME280_pressure;Samples;Min_cycle;Max_cycle;Signal;HPM_P1;HPM_P2
2023/03/21 00:01:28;;;;;;;;;9.75;9.75;;;;;22.05;39.07;101463.00;5057576;28;45321;-72
2023/03/21 00:03:53;;;;;;;;;7.00;7.00;;;;;22.07;38.79;101457.50;5057368;28;56066;-73
2023/03/21 00:06:18;;;;;;;;;8.75;8.75;;;;;22.04;39.07;101449.91;5057783;28;45379;-73
2023/03/21 00:08:44;;;;;;;;;8.25;8.25;;;;;22.05;38.64;101455.03;5057708;28;45358;-73
2023/03/21 00:11:11;;;;;;;;;7.75;7.50;;;;;22.06;38.62;101450.56;5057543;28;45371;-73
2023/03/21 00:13:37;;;;;;;;;10.00;7.75;;;;;22.01;38.71;101439.66;5057594;28;46200;-73
2023/03/21 00:16:15;;;;;;;;;7.00;6.75;;;;;22.05;38.70;101443.59;5057055;28;45407;-73
2023/03/21 00:18:45;;;;;;;;;9.00;9.00;;;;;21.95;38.91;101430.53;5057533;28;45344;-73
2023/03/21 00:21:14;;;;;;;;;8.75;7.75;;;;;22.04;39.11;101440.13;5057528;28;45396;-73
2023/03/21 00:23:40;;;;;;;;;7.50;7.50;;;;;22.04;39.03;101445.41;5057318;28;46987;-73
2023/03/21 00:26:09;;;;;;;;;9.75;9.00;;;;;22.05;38.99;101435.66;5038765;28;45443;-73
2023/03/21 00:28:43;;;;;;;;;7.25;7.25;;;;;22.06;38.48;101432.84;5057511;28;45418;-73
2023/03/21 00:31:10;;;;;;;;;10.50;7.75;;;;;22.03;39.06;101433.19;5056891;28;45357;-72
2023/03/21 00:33:37;;;;;;;;;9.00;7.25;;;;;22.09;38.78;101438.81;5057053;28;46310;-73
2023/03/21 00:36:03;;;;;;;;;7.00;7.00;;;;;22.11;38.55;101440.31;5056900;28;45484;-72
2023/03/21 00:38:28;;;;;;;;;10.00;8.25;;;;;22.11;38.97;101439.47;5057268;28;45401;-72
2023/03/21 00:40:54;;;;;;;;;5.00;4.25;;;;;22.13;38.91;101437.47;5057414;28;45340;-73
2023/03/21 00:43:22;;;;;;;;;7.50;7.50;;;;;22.12;38.40;101426.03;5057140;28;45998;-73
2023/03/21 00:45:48;;;;;;;;;6.75;6.50;;;;;22.14;38.58;101431.19;5055683;28;45451;-73
2023/03/21 00:48:14;;;;;;;;;9.00;7.00;;;;;22.13;38.62;101430.34;5057221;28;45390;-73
2023/03/21 00:50:41;;;;;;;;;9.25;8.00;;;;;22.14;38.42;101425.88;5056551;28;45591;-72
2023/03/21 00:53:06;;;;;;;;;7.00;7.00;;;;;22.14;39.06;101429.38;5057065;28;46089;-73
2023/03/21 00:55:32;;;;;;;;;7.25;7.25;;;;;22.15;38.80;101424.88;5056964;28;45467;-72
2023/03/21 00:57:58;;;;;;;;;6.75;6.00;;;;;22.13;38.92;101427.72;5056951;28;45372;-72
2023/03/21 01:00:24;;;;;;;;;6.50;6.50;;;;;22.08;39.28;101416.78;5056674;28;45279;-72
2023/03/21 01:02:55;;;;;;;;;8.00;8.00;;;;;22.13;38.70;101416.28;5056860;28;46358;-72
2023/03/21 01:08:11;;;;;;;;;6.00;6.00;;;;;22.14;39.01;101415.28;5056808;28;45400;-73
2023/03/21 01:10:41;;;;;;;;;6.25;6.25;;;;;22.13;39.00;101419.75;5056620;28;45494;-72
2023/03/21 01:13:08;;;;;;;;;7.25;7.25;;;;;22.13;38.42;101417.09;5056325;28;45370;-73
2023/03/21 01:15:34;;;;;;;;;9.75;6.50;;;;;22.13;39.02;101409.16;5056567;28;45326;-73
2023/03/21 01:18:00;;;;;;;;;6.50;6.00;;;;;22.13;38.56;101397.72;5056535;28;45336;-72
2023/03/21 01:20:26;;;;;;;;;10.50;7.50;;;;;22.10;38.74;101395.41;5056785;28;45221;-72
2023/03/21 01:22:51;;;;;;;;;6.25;6.25;;;;;22.12;38.57;101394.25;5056449;28;46115;-72
2023/03/21 01:25:17;;;;;;;;;8.25;5.50;;;;;22.11;39.11;101394.41;5056657;28;45328;-72
2023/03/21 01:27:42;;;;;;;;;5.25;4.25;;;;;22.05;38.91;101386.16;5056369;28;45312;-72
2023/03/21 01:30:08;;;;;;;;;6.25;6.25;;;;;22.13;38.60;101397.72;5056540;28;45537;-72
2023/03/21 01:32:33;;;;;;;;;7.00;7.00;;;;;22.13;39.02;101400.38;5056193;28;46349;-72
2023/03/21 01:34:59;;;;;;;;;7.00;7.00;;;;;22.05;38.43;101382.66;5056201;28;45489;-72
2023/03/21 01:37:25;;;;;;;;;10.25;7.00;;;;;22.13;39.22;101387.97;5056349;28;45336;-73
2023/03/21 01:39:51;;;;;;;;;9.50;6.50;;;;;22.03;38.76;101364.28;5056375;28;45458;-72
2023/03/21 01:42:16;;;;;;;;;8.00;6.25;;;;;22.14;39.32;101375.53;5055747;28;46175;-73
2023/03/21 01:45:29;;;;;;;;;11.00;7.00;;;;;22.16;38.76;101370.91;5056184;28;45440;-72
2023/03/21 01:47:55;;;;;;;;;6.25;6.00;;;;;22.16;38.68;101368.25;4974213;28;45431;-72
2023/03/21 01:50:21;;;;;;;;;5.25;5.25;;;;;22.13;39.11;101366.75;4974369;28;45486;-72
2023/03/21 01:52:48;;;;;;;;;6.50;5.50;;;;;22.04;38.83;101346.56;4974398;28;46217;-72
2023/03/21 01:55:17;;;;;;;;;7.50;7.50;;;;;22.13;38.93;101360.63;4974011;28;45356;-72
2023/03/21 01:57:51;;;;;;;;;5.00;5.00;;;;;22.20;38.88;101366.91;4973958;28;45458;-73
2023/03/21 02:00:21;;;;;;;;;8.00;8.00;;;;;22.21;38.63;101365.06;4974446;28;45459;-72
2023/03/21 02:02:50;;;;;;;;;7.50;7.50;;;;;22.22;39.32;101372.03;4974226;28;46378;-72
2023/03/21 02:05:21;;;;;;;;;8.25;7.00;;;;;22.21;38.82;101365.91;4974044;28;45510;-73
2023/03/21 02:07:51;;;;;;;;;6.00;5.25;;;;;22.22;38.68;101356.97;4958012;28;45473;-72
2023/03/21 02:10:17;;;;;;;;;7.25;5.75;;;;;22.13;38.73;101342.06;4973327;28;45556;-72
2023/03/21 02:12:42;;;;;;;;;7.50;6.00;;;;;22.23;39.29;101363.91;4973764;28;45409;-73
2023/03/21 02:15:08;;;;;;;;;8.50;4.75;;;;;22.24;39.20;101364.75;4974139;28;45523;-72
2023/03/21 02:17:39;;;;;;;;;7.00;6.00;;;;;22.24;38.85;101360.28;4974065;28;45472;-72
2023/03/21 02:20:26;;;;;;;;;8.00;6.00;;;;;22.24;39.26;101357.63;4973999;28;45513;-72
2023/03/21 02:23:13;;;;;;;;;7.00;5.50;;;;;22.24;38.82;101344.38;4975561;28;45284;-72
2023/03/21 02:25:42;;;;;;;;;10.00;7.25;;;;;22.23;38.85;101350.66;5055172;28;45362;-73
2023/03/21 02:28:48;;;;;;;;;7.50;7.00;;;;;22.22;38.94;101341.06;5055813;28;45339;-72
2023/03/21 02:31:13;;;;;;;;;8.50;6.00;;;;;22.21;39.35;101342.06;4954267;28;45474;-72
2023/03/21 02:34:06;;;;;;;;;9.00;5.75;;;;;22.21;39.30;101338.56;4954229;28;46187;-72
2023/03/21 02:36:46;;;;;;;;;10.50;6.25;;;;;22.21;39.07;101327.97;4970413;28;45364;-73
2023/03/21 02:39:16;;;;;;;;;6.50;6.50;;;;;22.18;39.27;101329.97;4954443;28;45378;-72
2023/03/21 02:41:47;;;;;;;;;6.75;6.50;;;;;22.20;39.41;101334.28;4953958;28;45411;-72
2023/03/21 02:44:20;;;;;;;;;7.25;5.00;;;;;22.17;39.07;101330.97;4954178;28;46180;-72
2023/03/21 02:46:55;;;;;;;;;9.75;7.25;;;;;22.18;39.39;101331.78;4954202;28;45347;-72
2023/03/21 02:49:41;;;;;;;;;7.00;6.25;;;;;22.17;39.24;101317.72;4954232;28;45451;-73
2023/03/21 02:52:11;;;;;;;;;7.75;6.25;;;;;22.17;39.27;101319.56;4954175;28;45396;-72
2023/03/21 02:54:38;;;;;;;;;5.50;5.50;;;;;22.15;38.95;101311.75;4952928;28;46174;-73
2023/03/21 02:57:05;;;;;;;;;6.00;4.25;;;;;22.16;39.16;101320.53;4954098;28;45370;-73
2023/03/21 02:59:32;;;;;;;;;7.25;6.25;;;;;22.15;39.28;101314.41;4954066;28;45370;-72
2023/03/21 03:01:58;;;;;;;;;9.25;5.25;;;;;22.14;39.34;101314.59;4954180;28;45396;-72
2023/03/21 03:04:27;;;;;;;;;4.25;4.25;;;;;22.14;39.39;101315.41;4953853;28;46333;-73
2023/03/21 03:07:02;;;;;;;;;7.00;5.50;;;;;22.14;39.39;101315.41;4963038;28;45455;-73
2023/03/21 03:09:30;;;;;;;;;5.25;5.25;;;;;22.12;39.04;101320.03;5037857;28;45365;-73
2023/03/21 03:12:12;;;;;;;;;7.00;7.00;;;;;22.12;39.75;101314.75;5038523;28;45485;-73
2023/03/21 03:14:56;;;;;;;;;5.25;5.25;;;;;22.12;39.22;101314.75;5020276;28;46327;-72
2023/03/21 03:17:59;;;;;;;;;5.75;4.25;;;;;22.13;38.92;101316.41;5044169;28;45414;-72
2023/03/21 03:20:58;;;;;;;;;7.75;6.00;;;;;22.14;39.29;101312.78;4957349;28;45491;-72
2023/03/21 03:23:41;;;;;;;;;8.00;6.50;;;;;22.14;39.24;101311.94;4956831;28;45338;-71
2023/03/21 03:26:12;;;;;;;;;11.25;6.00;;;;;22.14;39.36;101310.13;4956908;28;46306;-70
2023/03/21 03:28:43;;;;;;;;;5.75;5.75;;;;;22.04;39.12;101296.22;4957141;28;45445;-71
2023/03/21 03:31:12;;;;;;;;;6.50;4.00;;;;;22.11;38.93;101301.66;4956924;28;45463;-72
2023/03/21 03:33:42;;;;;;;;;3.25;3.00;;;;;22.15;38.88;101302.97;4957040;28;45401;-73
2023/03/21 03:36:12;;;;;;;;;5.00;3.50;;;;;22.15;38.66;101303.81;4956711;28;46992;-72
2023/03/21 03:38:40;;;;;;;;;7.00;5.25;;;;;22.15;39.14;101298.50;4956554;28;45386;-72
2023/03/21 03:41:17;;;;;;;;;4.25;4.25;;;;;22.15;39.18;101293.19;4957133;28;45405;-72
2023/03/21 03:43:49;;;;;;;;;6.25;4.25;;;;;22.14;39.01;101291.56;4956864;28;45320;-72
2023/03/21 03:46:25;;;;;;;;;6.25;6.00;;;;;22.14;39.28;101286.28;4956568;28;46499;-72
2023/03/21 03:48:56;;;;;;;;;7.00;5.00;;;;;22.12;39.40;101293.53;4956880;28;45795;-73
2023/03/21 03:51:31;;;;;;;;;6.50;5.50;;;;;22.12;38.85;101296.19;4956729;28;45438;-73
2023/03/21 03:54:03;;;;;;;;;6.50;6.00;;;;;22.11;38.95;101293.72;4956434;28;45470;-73
2023/03/21 03:56:29;;;;;;;;;7.25;5.75;;;;;22.09;38.83;101290.41;4973096;28;46190;-73
2023/03/21 03:58:56;;;;;;;;;5.50;5.00;;;;;22.10;39.38;101292.06;5037620;28;45431;-72
2023/03/21 04:01:21;;;;;;;;;5.50;4.50;;;;;22.06;39.08;101291.59;5037729;28;45362;-72
2023/03/21 04:03:50;;;;;;;;;6.00;4.50;;;;;22.02;38.95;101284.94;5037730;28;45296;-72
2023/03/21 04:06:16;;;;;;;;;5.75;3.00;;;;;22.09;39.33;101290.41;5037652;28;46298;-72
2023/03/21 04:08:42;;;;;;;;;5.25;5.25;;;;;22.07;39.02;101288.75;5037109;28;45389;-72
2023/03/21 04:11:09;;;;;;;;;5.50;4.50;;;;;22.07;39.42;101290.56;5037601;28;45286;-72
2023/03/21 04:13:34;;;;;;;;;4.50;4.00;;;;;22.07;38.99;101293.22;5037644;28;45333;-73
2023/03/21 04:15:59;;;;;;;;;6.25;4.00;;;;;22.06;39.43;101300.38;5037458;28;45422;-73
2023/03/21 04:18:25;;;;;;;;;6.00;4.50;;;;;22.02;39.32;101283.13;5039401;28;45355;-72
2023/03/21 04:20:51;;;;;;;;;5.75;4.50;;;;;22.06;39.41;101297.72;5057843;28;46119;-72
2023/03/21 04:23:18;;;;;;;;;7.00;4.00;;;;;22.04;38.77;101299.69;5057217;28;45337;-72
2023/03/21 04:25:43;;;;;;;;;5.50;4.00;;;;;22.04;39.38;101304.19;5057280;28;46129;-72
2023/03/21 04:28:09;;;;;;;;;5.50;4.75;;;;;21.93;38.88;101285.00;5057357;28;45388;-73
2023/03/21 04:30:35;;;;;;;;;5.75;4.00;;;;;22.02;38.97;101299.03;5057417;28;45392;-72
2023/03/21 04:33:00;;;;;;;;;5.50;5.00;;;;;22.03;39.40;101297.22;5057526;28;45483;-72
2023/03/21 04:35:27;;;;;;;;;6.00;5.00;;;;;21.92;39.35;101283.31;5056699;28;46151;-73
2023/03/21 04:37:53;;;;;;;;;3.25;3.25;;;;;22.02;39.12;101298.19;5056183;28;45302;-73
2023/03/21 04:40:18;;;;;;;;;4.00;3.75;;;;;22.01;39.36;101301.88;5057307;28;45305;-73
2023/03/21 04:42:45;;;;;;;;;4.00;4.00;;;;;21.99;39.09;101302.00;5057364;28;45318;-73
2023/03/21 04:45:12;;;;;;;;;5.00;4.50;;;;;21.96;38.98;101303.19;5057111;28;47268;-72
2023/03/21 04:47:37;;;;;;;;;4.50;4.50;;;;;21.99;39.35;101299.38;5057149;28;45471;-72
2023/03/21 04:50:03;;;;;;;;;2.67;2.67;;;;;22.00;38.80;101308.97;5038997;28;45831;-73
2023/03/21 04:52:28;;;;;;;;;5.00;4.00;;;;;21.98;39.27;101291.59;5056896;28;45485;-72
2023/03/21 04:54:54;;;;;;;;;5.00;4.50;;;;;21.95;38.89;101296.25;5056888;28;45997;-73
2023/03/21 04:57:19;;;;;;;;;6.25;6.00;;;;;22.02;38.74;101303.50;5056997;28;45273;-72
2023/03/21 04:59:45;;;;;;;;;6.25;4.25;;;;;22.03;38.69;101306.00;5057020;28;45329;-72
2023/03/21 05:02:11;;;;;;;;;4.00;4.00;;;;;22.05;39.27;101303.16;5057052;28;45328;-72
2023/03/21 05:04:37;;;;;;;;;6.00;5.75;;;;;22.03;39.14;101297.22;5056839;28;45470;-72
2023/03/21 05:07:02;;;;;;;;;4.75;3.25;;;;;21.97;39.19;101280.16;5056445;28;45435;-73
2023/03/21 05:09:28;;;;;;;;;4.00;4.00;;;;;22.04;38.62;101299.69;5056978;28;45281;-72
2023/03/21 05:11:53;;;;;;;;;4.25;4.00;;;;;22.04;39.17;101304.19;5056392;28;45513;-72
2023/03/21 05:14:23;;;;;;;;;5.00;5.00;;;;;22.05;38.99;101295.22;5056805;28;45301;-72
2023/03/21 05:16:52;;;;;;;;;6.00;4.00;;;;;22.03;39.14;101287.44;5056683;28;45654;-73
2023/03/21 05:19:33;;;;;;;;;3.00;3.00;;;;;21.97;39.09;101280.16;5056702;28;45372;-73
2023/03/21 05:22:03;;;;;;;;;4.25;4.25;;;;;22.02;39.20;101293.72;5056772;28;45445;-72
2023/03/21 05:24:30;;;;;;;;;3.75;3.75;;;;;21.98;38.90;101275.69;5055902;28;46144;-73
2023/03/21 05:27:00;;;;;;;;;4.75;4.75;;;;;22.01;39.17;101286.81;5056598;28;45400;-73
2023/03/21 05:29:26;;;;;;;;;4.00;4.00;;;;;21.99;38.84;101288.75;5056533;28;45440;-73
2023/03/21 05:31:51;;;;;;;;;5.50;5.50;;;;;22.02;38.78;101277.00;5055804;28;45290;-73
2023/03/21 05:34:17;;;;;;;;;4.25;4.25;;;;;21.90;38.88;101240.28;5055931;28;47750;-73
2023/03/21 05:36:42;;;;;;;;;3.75;3.75;;;;;21.99;38.76;101264.91;5056106;28;45308;-73
2023/03/21 05:39:07;;;;;;;;;3.25;3.25;;;;;21.99;39.25;101258.81;5056645;28;45356;-73
2023/03/21 05:41:33;;;;;;;;;5.00;4.67;;;;;21.98;38.72;101271.22;5056436;28;45435;-72
2023/03/21 05:43:59;;;;;;;;;5.67;4.00;;;;;21.93;39.34;101263.81;5056102;28;46104;-73
2023/03/21 05:46:24;;;;;;;;;3.33;3.00;;;;;21.97;38.87;101258.97;5055471;28;45364;-72
2023/03/21 05:48:50;;;;;;;;;4.75;3.75;;;;;21.97;38.62;101274.88;5055849;28;45753;-72
2023/03/21 05:51:16;;;;;;;;;3.75;3.00;;;;;21.95;38.74;101261.81;5056205;28;45398;-73
2023/03/21 05:53:42;;;;;;;;;6.00;4.67;;;;;21.96;39.28;101265.28;5055949;28;47096;-73
2023/03/21 05:56:08;;;;;;;;;3.50;3.25;;;;;21.94;38.72;101264.59;5037997;28;45447;-73
2023/03/21 05:58:33;;;;;;;;;3.25;3.25;;;;;21.94;38.57;101261.94;5056118;28;45340;-73
2023/03/21 06:00:58;;;;;;;;;4.75;4.75;;;;;21.94;39.12;101262.78;5038167;28;45356;-72
2023/03/21 06:03:24;;;;;;;;;3.33;3.33;;;;;21.94;39.25;101273.38;5055439;28;47155;-73
2023/03/21 06:05:49;;;;;;;;;4.25;3.00;;;;;21.93;39.22;101269.09;5055972;28;45395;-72
2023/03/21 06:08:14;;;;;;;;;3.75;3.75;;;;;21.93;39.14;101269.09;5055969;28;45881;-72
2023/03/21 06:10:40;;;;;;;;;4.75;3.75;;;;;21.89;39.04;101265.13;5055864;28;45466;-72
2023/03/21 06:13:05;;;;;;;;;5.25;4.00;;;;;21.92;39.23;101270.09;5055876;28;45945;-72
2023/03/21 06:15:30;;;;;;;;;3.00;3.00;;;;;21.92;38.79;101258.66;5055757;28;45413;-72
2023/03/21 06:17:56;;;;;;;;;5.00;3.00;;;;;21.91;39.13;101252.53;5055274;28;45597;-72
2023/03/21 06:20:21;;;;;;;;;3.00;3.00;;;;;21.92;38.70;101232.16;5055800;28;45476;-72
2023/03/21 06:22:46;;;;;;;;;5.50;3.25;;;;;21.93;39.17;101258.50;5055603;28;45380;-72
2023/03/21 06:25:12;;;;;;;;;3.75;3.75;;;;;21.95;39.14;101258.31;5055646;28;45369;-73
2023/03/21 06:27:38;;;;;;;;;3.00;3.00;;;;;21.95;38.88;101242.44;5055763;28;45302;-72
2023/03/21 06:30:04;;;;;;;;;3.75;3.00;;;;;21.94;38.63;101230.16;5055761;28;45397;-72
2023/03/21 06:32:30;;;;;;;;;1.25;0.00;;;;;21.97;38.74;101251.03;5054984;28;46998;-73
2023/03/21 06:34:55;;;;;;;;;5.75;4.00;;;;;21.97;39.09;101232.47;5055337;28;45243;-73
2023/03/21 06:37:21;;;;;;;;;1.00;1.00;;;;;21.98;38.97;101238.59;5055405;28;45306;-72
2023/03/21 06:39:46;;;;;;;;;4.50;3.00;;;;;21.97;39.06;101235.13;5055627;28;45354;-72
2023/03/21 06:42:12;;;;;;;;;4.00;3.00;;;;;21.98;38.64;101223.53;5055367;28;46018;-72
2023/03/21 06:44:38;;;;;;;;;0.00;0.00;;;;;21.98;38.71;101202.34;5059034;28;45285;-72
2023/03/21 06:47:03;;;;;;;;;4.00;3.00;;;;;21.98;38.54;101190.91;5058611;28;45341;-73
2023/03/21 06:49:29;;;;;;;;;3.00;2.75;;;;;21.98;38.93;101193.56;5059030;28;45325;-72
2023/03/21 06:51:55;;;;;;;;;4.00;2.67;;;;;21.98;38.77;101206.81;5058876;28;45348;-72
2023/03/21 06:54:20;;;;;;;;;2.00;2.00;;;;;21.97;38.63;101219.22;5058637;28;45376;-73
2023/03/21 06:56:46;;;;;;;;;3.00;2.33;;;;;21.95;38.54;101222.06;5059146;28;45426;-72
2023/03/21 06:59:12;;;;;;;;;3.00;3.00;;;;;21.90;38.83;101236.81;5058748;28;45331;-72
2023/03/21 07:01:37;;;;;;;;;2.25;2.25;;;;;21.95;38.58;101248.56;5058400;28;47183;-72
2023/03/21 07:04:03;;;;;;;;;2.00;2.00;;;;;21.90;38.44;101224.41;5058590;28;45536;-73
2023/03/21 07:06:29;;;;;;;;;5.67;3.00;;;;;21.94;39.06;101232.81;5058786;28;45370;-73
2023/03/21 07:08:55;;;;;;;;;3.00;3.00;;;;;21.93;38.97;101247.91;5058646;28;45476;-73
2023/03/21 07:11:21;;;;;;;;;3.75;3.00;;;;;21.93;38.71;101261.16;5058460;28;45412;-73
2023/03/21 07:13:47;;;;;;;;;3.00;3.00;;;;;21.93;39.02;101263.81;5058652;28;45409;-72
2023/03/21 07:16:14;;;;;;;;;4.00;3.00;;;;;21.92;39.05;101256.00;5058255;28;45340;-76
2023/03/21 07:18:40;;;;;;;;;2.25;2.25;;;;;21.92;38.96;101250.69;5058518;28;45269;-72
2023/03/21 07:21:05;;;;;;;;;3.33;3.00;;;;;21.87;38.81;101239.75;5057510;28;46292;-71
2023/03/21 07:23:31;;;;;;;;;2.75;2.75;;;;;21.93;38.63;101250.56;5056734;28;45453;-71
2023/03/21 07:25:57;;;;;;;;;3.25;2.25;;;;;21.94;38.68;101235.47;5047357;28;45313;-71
2023/03/21 07:28:23;;;;;;;;;2.50;2.50;;;;;21.96;39.24;101236.13;5055188;28;45455;-71
2023/03/21 07:30:54;;;;;;;;;3.00;2.00;;;;;21.97;39.04;101229.81;5057003;28;46075;-71
2023/03/21 07:33:21;;;;;;;;;3.00;2.33;;;;;21.98;39.27;101230.66;5057858;28;45405;-72
2023/03/21 07:35:47;;;;;;;;;6.00;3.00;;;;;21.98;39.26;101223.53;5057237;28;45420;-71
2023/03/21 07:38:15;;;;;;;;;2.00;2.00;;;;;21.99;39.32;101229.69;5056261;28;45513;-72
2023/03/21 07:40:41;;;;;;;;;2.75;2.00;;;;;22.00;39.45;101237.44;5056541;28;46305;-71
2023/03/21 07:43:06;;;;;;;;;2.25;2.00;;;;;22.01;39.46;101236.47;5041864;28;45512;-72
2023/03/21 07:45:31;;;;;;;;;2.00;2.00;;;;;22.02;39.24;101245.22;5050275;28;45671;-72
2023/03/21 07:47:57;;;;;;;;;3.67;3.00;;;;;22.03;39.16;101249.53;5050901;28;45376;-72
2023/03/21 07:50:22;;;;;;;;;4.67;3.00;;;;;22.04;38.86;101267.09;5051113;28;45392;-72
2023/03/21 07:52:47;;;;;;;;;3.50;3.50;;;;;22.03;38.62;101266.25;5050551;28;46371;-71
2023/03/21 07:55:13;;;;;;;;;3.00;2.00;;;;;22.04;39.01;101261.78;5051232;28;46082;-72
2023/03/21 07:57:38;;;;;;;;;2.00;2.00;;;;;22.04;39.12;101264.44;5051415;28;45586;-72
2023/03/21 08:00:05;;;;;;;;;2.50;2.50;;;;;22.04;38.46;101270.53;5051526;28;46320;-72
2023/03/21 08:02:31;;;;;;;;;1.33;1.33;;;;;22.04;38.83;101264.44;5051942;28;45609;-72
2023/03/21 08:04:56;;;;;;;;;2.33;1.67;;;;;22.05;38.77;101268.72;5051031;28;45573;-72
2023/03/21 08:07:21;;;;;;;;;2.67;2.67;;;;;22.06;38.42;101259.78;5051599;28;45454;-71
2023/03/21 08:09:47;;;;;;;;;2.00;2.00;;;;;22.01;38.64;101259.47;5050906;28;45511;-71
2023/03/21 08:12:12;;;;;;;;;2.00;2.00;;;;;22.01;38.59;101252.34;5050337;28;45530;-72
2023/03/21 08:14:38;;;;;;;;;4.00;3.67;;;;;22.06;39.03;101251.84;5050496;28;45522;-72
2023/03/21 08:17:05;;;;;;;;;2.33;2.33;;;;;22.07;38.90;101258.78;5051238;28;45552;-72
2023/03/21 08:19:30;;;;;;;;;2.00;2.00;;;;;22.07;38.79;101261.41;5050983;28;46273;-73
2023/03/21 08:21:58;;;;;;;;;4.00;1.67;;;;;22.06;38.90;101259.78;5050224;28;45356;-73
2023/03/21 08:24:24;;;;;;;;;4.00;3.00;;;;;22.00;38.44;101256.00;5051228;28;45569;-71
2023/03/21 08:26:50;;;;;;;;;1.67;1.67;;;;;22.07;38.39;101266.72;5050267;28;45381;-72
2023/03/21 08:29:15;;;;;;;;;3.00;3.00;;;;;22.07;38.85;101264.06;5050205;28;46211;-71
2023/03/21 08:31:41;;;;;;;;;2.00;2.00;;;;;22.11;38.82;101264.56;5045938;28;46364;-73
2023/03/21 08:34:06;;;;;;;;;3.00;3.00;;;;;22.07;38.84;101250.81;5049193;28;45387;-70
2023/03/21 08:36:35;;;;;;;;;2.00;2.00;;;;;22.07;38.91;101256.94;5010970;28;1170604;-72
2023/03/21 08:39:03;;;;;;;;;2.00;2.00;;;;;22.10;38.51;101262.91;5050856;28;46177;-72
2023/03/21 08:41:29;;;;;;;;;3.33;3.00;;;;;22.10;38.83;101265.56;5051300;28;45525;-71
2023/03/21 08:43:54;;;;;;;;;2.67;2.00;;;;;22.07;38.75;101259.59;5051049;28;45525;-72
2023/03/21 08:46:20;;;;;;;;;2.00;2.00;;;;;21.95;38.67;101230.00;5051623;28;45505;-72
2023/03/21 08:48:45;;;;;;;;;3.00;2.50;;;;;22.06;38.89;101252.66;5051021;28;50998;-72
2023/03/21 08:51:10;;;;;;;;;3.00;2.00;;;;;22.05;38.61;101243.06;5051437;28;45500;-73
2023/03/21 08:53:36;;;;;;;;;4.33;2.00;;;;;22.06;38.80;101241.25;5050177;28;45535;-72
2023/03/21 08:56:02;;;;;;;;;4.00;2.67;;;;;22.06;38.77;101244.72;5051780;28;45509;-73
2023/03/21 08:58:27;;;;;;;;;2.67;2.67;;;;;22.06;38.85;101241.25;5051424;28;46566;-72
2023/03/21 09:00:52;;;;;;;;;3.00;3.00;;;;;21.96;38.67;101225.53;5051315;28;45384;-72
2023/03/21 09:03:18;;;;;;;;;2.00;2.00;;;;;22.06;38.88;101243.88;5051646;28;45412;-72
2023/03/21 09:05:44;;;;;;;;;2.00;2.00;;;;;22.01;38.86;101243.56;5050359;28;45451;-72
2023/03/21 09:08:11;;;;;;;;;1.33;1.33;;;;;22.05;38.33;101245.72;5051199;28;46017;-72
2023/03/21 09:10:38;;;;;;;;;2.33;1.00;;;;;22.06;38.80;101247.38;5051272;28;45452;-73
2023/03/21 09:13:03;;;;;;;;;1.00;1.00;;;;;22.00;38.32;101237.44;5050283;28;45771;-72
2023/03/21 09:15:28;;;;;;;;;2.00;2.00;;;;;22.05;38.29;101240.41;5051098;28;45426;-71
2023/03/21 09:17:57;;;;;;;;;2.00;2.00;;;;;22.05;38.73;101255.47;5050594;28;45550;-72
2023/03/21 09:20:31;;;;;;;;;2.00;2.00;;;;;22.06;38.76;101251.84;5050580;28;45399;-72
2023/03/21 09:22:57;;;;;;;;;2.00;2.00;;;;;22.06;38.22;101251.84;5050895;28;45856;-72
2023/03/21 09:25:23;;;;;;;;;3.00;2.00;;;;;22.06;38.30;101249.19;5050786;28;45409;-72
2023/03/21 09:27:50;;;;;;;;;1.33;1.00;;;;;22.08;38.66;101252.50;5050690;28;46253;-73
2023/03/21 09:30:19;;;;;;;;;2.33;1.67;;;;;22.09;38.16;101262.09;5051027;28;45349;-72
2023/03/21 09:32:47;;;;;;;;;2.67;1.67;;;;;22.07;38.74;101258.78;5050354;28;45664;-73
2023/03/21 09:35:14;;;;;;;;;2.00;2.00;;;;;22.09;38.18;101270.06;5050460;28;45377;-72
2023/03/21 09:37:41;;;;;;;;;1.00;1.00;;;;;22.10;38.66;101284.09;5050457;28;46061;-72
2023/03/21 09:40:17;;;;;;;;;1.00;1.00;;;;;22.09;38.66;101285.94;5050403;28;45516;-72
2023/03/21 09:42:45;;;;;;;;;1.67;1.67;;;;;22.09;38.20;101278.00;5050028;28;45423;-72
2023/03/21 09:45:25;;;;;;;;;2.00;2.00;;;;;22.11;38.32;101281.31;5050906;28;45447;-72
2023/03/21 09:47:55;;;;;;;;;1.00;1.00;;;;;22.12;38.46;101296.19;5049212;28;45612;-72
2023/03/21 09:50:30;;;;;;;;;2.67;2.33;;;;;22.07;38.60;101288.75;5050616;28;45622;-72
2023/03/21 09:52:57;;;;;;;;;2.00;2.00;;;;;22.12;38.17;101303.34;5050403;28;45422;-72
2023/03/21 09:55:29;;;;;;;;;2.00;2.00;;;;;22.11;38.58;101302.50;5049430;28;45595;-72
2023/03/21 09:57:55;;;;;;;;;2.00;2.00;;;;;22.10;38.40;101300.84;5050204;28;46211;-72
2023/03/21 10:00:26;;;;;;;;;1.00;1.00;;;;;22.06;38.72;101292.41;5050477;28;45846;-72
2023/03/21 10:02:58;;;;;;;;;1.00;1.00;;;;;22.09;38.63;101291.25;5050223;28;45675;-72
2023/03/21 10:05:26;;;;;;;;;3.00;1.00;;;;;21.94;38.54;101273.38;5050692;28;45331;-72
2023/03/21 10:07:58;;;;;;;;;2.00;2.00;;;;;22.06;38.67;101296.88;5050353;28;47011;-72
2023/03/21 10:10:28;;;;;;;;;1.00;1.00;;;;;22.06;38.72;101297.72;5050383;28;45419;-72
2023/03/21 10:12:55;;;;;;;;;2.00;2.00;;;;;22.05;38.81;101298.69;5049825;28;45497;-71
2023/03/21 10:15:23;;;;;;;;;1.00;1.00;;;;;22.05;38.67;101300.50;5050475;28;45717;-71
2023/03/21 10:18:00;;;;;;;;;1.00;1.00;;;;;21.90;38.78;101273.91;5049831;28;47033;-72
2023/03/21 10:20:32;;;;;;;;;1.00;1.00;;;;;22.03;38.43;101287.44;5050426;28;45468;-72
2023/03/21 10:23:00;;;;;;;;;1.00;1.00;;;;;21.93;38.64;101277.03;5050327;28;45924;-72
2023/03/21 10:25:58;;;;;;;;;4.00;1.00;;;;;22.04;38.43;101282.97;5050024;28;45359;-72
2023/03/21 10:28:27;;;;;;;;;2.33;2.33;;;;;22.03;38.86;101282.16;5037500;28;47152;-72
2023/03/21 10:30:59;;;;;;;;;1.00;1.00;;;;;22.05;38.88;101279.31;5048719;28;45705;-72
2023/03/21 10:33:28;;;;;;;;;3.33;2.00;;;;;21.93;38.64;101263.81;5050253;28;45650;-72
2023/03/21 10:36:10;;;;;;;;;1.33;1.33;;;;;22.05;38.87;101274.84;5049824;28;45982;-72
2023/03/21 10:38:41;;;;;;;;;1.00;1.00;;;;;22.06;38.36;101273.03;5049699;28;46517;-72
2023/03/21 10:41:06;;;;;;;;;2.00;2.00;;;;;22.07;38.90;101272.84;5049818;28;45642;-72
2023/03/21 10:43:36;;;;;;;;;1.00;1.00;;;;;22.09;38.33;101275.34;5050578;28;45792;-72
2023/03/21 10:46:28;;;;;;;;;2.33;1.33;;;;;22.10;38.80;101276.16;5050616;28;45576;-72
2023/03/21 10:48:53;;;;;;;;;2.50;2.00;;;;;22.10;38.62;101269.03;5045152;28;45791;-72
2023/03/21 10:51:31;;;;;;;;;4.00;2.00;;;;;22.09;38.88;101251.50;5049754;28;45601;-72
2023/03/21 10:54:12;;;;;;;;;2.75;1.50;;;;;22.03;38.88;101247.72;5049516;28;45341;-71
2023/03/21 10:56:44;;;;;;;;;1.00;1.00;;;;;22.10;38.75;101249.66;5049723;28;46578;-72
2023/03/21 10:59:17;;;;;;;;;1.00;1.00;;;;;22.05;38.72;101237.75;5049484;28;46767;-72
2023/03/21 11:01:47;;;;;;;;;1.67;1.67;;;;;22.13;38.87;101247.50;5049695;28;45920;-72
2023/03/21 11:04:16;;;;;;;;;1.00;1.00;;;;;22.13;38.76;101247.50;5049368;28;45447;-71
2023/03/21 11:06:45;;;;;;;;;3.00;2.00;;;;;22.15;38.63;101245.50;5049880;28;46454;-72
2023/03/21 11:09:20;;;;;;;;;1.00;1.00;;;;;22.17;38.77;101234.75;5049295;28;46084;-72
2023/03/21 11:12:02;;;;;;;;;2.00;2.00;;;;;22.18;38.25;101241.69;5049348;28;45973;-71
2023/03/21 11:14:36;;;;;;;;;4.00;1.00;;;;;22.17;38.30;101230.25;5050182;28;45829;-72
2023/03/21 11:17:17;;;;;;;;;2.33;2.00;;;;;22.16;38.64;101235.72;5049885;28;45817;-72
2023/03/21 11:19:57;;;;;;;;;2.00;2.00;;;;;22.20;38.43;101244.97;5047156;28;46102;-72
2023/03/21 11:22:27;;;;;;;;;1.00;1.00;;;;;22.21;38.58;101249.28;5049359;28;45454;-72
2023/03/21 11:24:58;;;;;;;;;1.00;1.00;;;;;22.13;38.75;101222.81;5048718;28;45416;-71
2023/03/21 11:27:28;;;;;;;;;1.00;1.00;;;;;22.21;38.23;101240.50;5049523;28;45340;-71
2023/03/21 11:29:55;;;;;;;;;0.33;0.33;;;;;22.21;38.73;101248.47;5051358;28;46077;-72
2023/03/21 11:32:25;;;;;;;;;1.33;1.33;;;;;22.20;38.59;101247.63;5052490;28;45463;-71
2023/03/21 11:34:50;;;;;;;;;1.00;1.00;;;;;22.19;38.68;101253.94;5052283;28;46187;-71